createdAt,value
2022-08-23T00:01:12.193Z,6.22
2022-08-23T00:04:19.646Z,6.15
2022-08-23T00:07:23.587Z,6.55
2022-08-23T00:10:26.545Z,5.70
2022-08-23T00:13:47.430Z,6.25
2022-08-23T00:16:51.805Z,7.72
2022-08-23T00:19:54.488Z,7.05
2022-08-23T00:22:57.478Z,6.03
2022-08-23T00:26:03.784Z,9.30
2022-08-23T00:29:06.696Z,7.45
2022-08-23T00:32:12.993Z,5.93
2022-08-23T00:35:22.212Z,7.37
2022-08-23T00:38:33.637Z,5.50
2022-08-23T00:41:38.299Z,7.03
2022-08-23T00:45:10.101Z,7.90
2022-08-23T00:48:13.870Z,5.97
2022-08-23T00:51:23.031Z,6.07
2022-08-23T00:54:29.026Z,5.95
2022-08-23T00:57:32.808Z,5.95
2022-08-23T01:00:36.201Z,8.30
2022-08-23T01:03:42.551Z,6.60
2022-08-23T01:06:59.625Z,6.53
2022-08-23T01:10:09.284Z,7.65
2022-08-23T01:13:40.904Z,8.48
2022-08-23T01:16:54.880Z,6.75
2022-08-23T01:20:02.694Z,7.25
2022-08-23T01:23:15.905Z,7.12
2022-08-23T01:26:22.253Z,9.50
2022-08-23T01:29:25.201Z,9.05
2022-08-23T01:32:29.875Z,8.75
2022-08-23T01:35:35.906Z,6.75
2022-08-23T01:38:39.405Z,8.35
2022-08-23T01:41:42.023Z,8.38
2022-08-23T01:44:45.130Z,7.25
2022-08-23T01:47:47.591Z,7.78
2022-08-23T01:50:51.418Z,7.37
2022-08-23T01:56:57.247Z,9.55
2022-08-23T02:00:00.231Z,9.43
2022-08-23T02:03:05.776Z,8.98
2022-08-23T02:06:08.834Z,10.60
2022-08-23T02:09:17.898Z,9.93
2022-08-23T02:12:20.986Z,9.55
2022-08-23T02:15:29.731Z,9.57
2022-08-23T02:18:32.604Z,11.77
2022-08-23T02:21:36.745Z,8.75
2022-08-23T02:24:44.531Z,9.65
2022-08-23T02:27:47.451Z,9.02
2022-08-23T02:30:51.407Z,9.52
2022-08-23T02:33:55.100Z,15.38
2022-08-23T02:37:01.031Z,14.10
2022-08-23T02:40:06.058Z,11.43
2022-08-23T02:43:09.449Z,11.73
2022-08-23T02:46:13.012Z,13.82
2022-08-23T02:49:16.626Z,12.27
2022-08-23T02:52:19.665Z,12.98
2022-08-23T02:55:22.371Z,14.95
2022-08-23T02:58:26.828Z,12.18
2022-08-23T03:01:33.656Z,13.43
2022-08-23T03:04:37.299Z,13.93
2022-08-23T03:07:40.650Z,17.50
2022-08-23T03:10:45.839Z,16.67
2022-08-23T03:13:49.379Z,14.60
2022-08-23T03:16:53.486Z,17.75
2022-08-23T03:20:00.656Z,16.00
2022-08-23T03:23:03.587Z,17.70
2022-08-23T03:26:09.566Z,13.88
2022-08-23T03:29:13.438Z,14.15
2022-08-23T03:32:18.241Z,15.32
2022-08-23T03:35:21.999Z,14.23
2022-08-23T03:38:24.898Z,17.17
2022-08-23T03:41:28.048Z,16.17
2022-08-23T03:44:31.713Z,21.33
2022-08-23T03:47:35.198Z,27.00
2022-08-23T03:50:37.722Z,29.17
2022-08-23T03:53:40.936Z,26.85
2022-08-23T03:57:02.878Z,27.48
2022-08-23T04:00:08.258Z,26.73
2022-08-23T04:03:16.630Z,26.00
2022-08-23T04:06:22.678Z,28.20
2022-08-23T04:09:25.508Z,27.10
2022-08-23T04:12:28.775Z,27.10
2022-08-23T04:15:31.222Z,22.92
2022-08-23T04:18:34.861Z,22.48
2022-08-23T04:21:38.126Z,22.45
2022-08-23T04:24:42.778Z,20.17
2022-08-23T04:27:46.010Z,19.25
2022-08-23T04:30:49.946Z,21.17
2022-08-23T04:33:54.448Z,19.58
2022-08-23T04:36:57.443Z,17.45
2022-08-23T04:40:18.382Z,18.33
2022-08-23T04:43:21.814Z,20.40
2022-08-23T04:46:24.568Z,21.95
2022-08-23T04:49:28.440Z,20.65
2022-08-23T04:52:30.948Z,22.33
2022-08-23T04:55:34.987Z,18.60
2022-08-23T04:58:39.245Z,18.80
2022-08-23T05:01:42.913Z,18.73
2022-08-23T05:07:48.704Z,19.15
2022-08-23T05:10:51.292Z,22.37
2022-08-23T05:13:54.214Z,22.77
2022-08-23T05:16:57.819Z,23.92
2022-08-23T05:20:01.646Z,24.08
2022-08-23T05:23:05.640Z,21.92
2022-08-23T05:26:11.687Z,26.92
2022-08-23T05:29:15.235Z,29.98
2022-08-23T05:32:18.728Z,26.60
2022-08-23T05:35:21.340Z,29.08
2022-08-23T05:38:26.864Z,25.05
2022-08-23T05:41:38.144Z,31.52
2022-08-23T05:44:43.601Z,26.25
2022-08-23T05:47:46.473Z,24.65
2022-08-23T05:50:54.140Z,24.00
2022-08-23T05:54:06.343Z,21.73
2022-08-23T06:00:15.280Z,24.02
2022-08-23T06:03:21.352Z,24.73
2022-08-23T06:06:36.956Z,28.45
2022-08-23T06:09:40.581Z,23.05
2022-08-23T06:12:43.773Z,20.70
2022-08-23T06:15:46.556Z,21.75
2022-08-23T06:18:50.748Z,20.23
2022-08-23T06:21:54.655Z,22.73
2022-08-23T06:24:57.859Z,21.73
2022-08-23T06:28:01.632Z,21.70
2022-08-23T06:31:06.105Z,20.50
2022-08-23T06:34:10.517Z,18.87
2022-08-23T06:37:15.292Z,21.40
2022-08-23T06:40:18.955Z,22.98
2022-08-23T06:43:22.017Z,21.27
2022-08-23T06:46:29.502Z,20.88
2022-08-23T06:49:32.584Z,23.10
2022-08-23T06:52:36.739Z,17.90
2022-08-23T06:55:41.691Z,19.65
2022-08-23T06:58:48.410Z,20.12
2022-08-23T07:01:56.645Z,18.60
2022-08-23T07:05:00.266Z,22.05
2022-08-23T07:08:04.279Z,21.85
2022-08-23T07:11:07.116Z,17.30
2022-08-23T07:14:19.120Z,16.80
2022-08-23T07:17:21.908Z,15.70
2022-08-23T07:20:25.305Z,16.45
2022-08-23T07:23:33.321Z,16.27
2022-08-23T07:26:37.254Z,18.77
2022-08-23T07:29:40.460Z,16.58
2022-08-23T07:32:45.277Z,15.07
2022-08-23T07:35:52.657Z,15.05
2022-08-23T07:38:57.014Z,16.70
2022-08-23T07:42:01.891Z,17.15
2022-08-23T07:45:24.950Z,19.30
2022-08-23T07:48:52.430Z,20.05
2022-08-23T07:51:53.587Z,16.80
2022-08-23T07:54:56.432Z,18.65
2022-08-23T07:58:00.951Z,15.10
2022-08-23T08:01:25.820Z,16.95
2022-08-23T08:04:29.029Z,28.15
2022-08-23T08:07:35.491Z,14.20
2022-08-23T08:10:43.926Z,14.05
2022-08-23T08:13:49.255Z,13.20
2022-08-23T08:16:53.366Z,12.23
2022-08-23T08:19:56.357Z,12.13
2022-08-23T08:23:03.981Z,11.82
2022-08-23T08:26:09.067Z,13.75
2022-08-23T08:29:12.707Z,11.48
2022-08-23T08:32:16.845Z,13.20
2022-08-23T08:35:19.984Z,12.82
2022-08-23T08:38:22.809Z,12.15
2022-08-23T08:41:51.475Z,12.95
2022-08-23T08:45:33.026Z,13.85
2022-08-23T08:48:44.790Z,15.13
2022-08-23T08:51:53.326Z,16.05
2022-08-23T08:55:02.890Z,12.65
2022-08-23T08:58:12.298Z,15.25
2022-08-23T09:01:21.093Z,14.80
2022-08-23T09:04:25.569Z,13.43
2022-08-23T09:07:44.458Z,14.68
2022-08-23T09:11:09.064Z,14.65
2022-08-23T09:14:46.678Z,17.83
2022-08-23T09:17:53.699Z,12.95
2022-08-23T09:20:58.824Z,12.45
2022-08-23T09:24:03.112Z,13.95
2022-08-23T09:27:10.622Z,10.23
2022-08-23T09:30:16.791Z,10.68
2022-08-23T09:33:26.228Z,12.43
2022-08-23T09:36:34.327Z,10.77
2022-08-23T09:39:41.086Z,11.07
2022-08-23T09:42:44.405Z,12.02
2022-08-23T09:45:51.265Z,12.68
2022-08-23T09:48:55.360Z,11.88
2022-08-23T09:52:02.215Z,10.32
2022-08-23T09:55:10.907Z,8.77
2022-08-23T09:58:26.656Z,8.65
2022-08-23T10:01:38.888Z,9.85
2022-08-23T10:04:46.918Z,9.77
2022-08-23T10:08:01.941Z,8.27
2022-08-23T10:11:16.872Z,6.97
2022-08-23T10:14:23.412Z,8.13
2022-08-23T10:17:48.854Z,7.55
2022-08-23T10:20:58.887Z,5.68
2022-08-23T10:24:40.631Z,7.62
2022-08-23T10:28:20.816Z,9.00
2022-08-23T10:31:32.477Z,8.00
2022-08-23T10:35:23.376Z,8.30
2022-08-23T10:38:33.865Z,8.65
2022-08-23T10:41:36.731Z,8.52
2022-08-23T10:44:48.674Z,7.78
2022-08-23T10:48:00.344Z,8.10
2022-08-23T10:51:11.575Z,7.28
2022-08-23T10:54:34.453Z,6.40
2022-08-23T10:57:41.006Z,7.20
2022-08-23T11:00:44.459Z,7.90
2022-08-23T11:03:55.452Z,10.18
2022-08-23T11:07:00.601Z,8.17
2022-08-23T11:10:39.336Z,5.97
2022-08-23T11:13:53.226Z,6.68
2022-08-23T11:17:00.228Z,5.45
2022-08-23T11:20:09.929Z,7.40
2022-08-23T11:23:16.253Z,7.18
2022-08-23T11:26:28.378Z,8.52
2022-08-23T11:29:32.459Z,7.85
2022-08-23T11:32:41.510Z,7.15
2022-08-23T11:35:54.237Z,9.05
2022-08-23T11:38:57.140Z,9.00
2022-08-23T11:42:02.293Z,5.62
2022-08-23T11:45:26.211Z,7.53
2022-08-23T11:48:29.495Z,6.25
2022-08-23T11:51:46.571Z,6.12
2022-08-23T11:55:24.333Z,5.65
2022-08-23T11:58:50.532Z,5.00
2022-08-23T12:01:54.657Z,4.25
2022-08-23T12:04:59.728Z,6.25
2022-08-23T12:08:05.692Z,6.40
2022-08-23T12:11:10.566Z,6.15
2022-08-23T12:14:49.756Z,8.40
2022-08-23T12:17:53.552Z,6.60
2022-08-23T12:21:01.970Z,10.25
2022-08-23T12:24:40.156Z,7.20
2022-08-23T12:27:52.398Z,5.72
2022-08-23T12:31:13.511Z,6.93
2022-08-23T12:34:44.604Z,5.62
2022-08-23T12:38:09.309Z,8.25
2022-08-23T12:41:31.626Z,8.63
2022-08-23T12:44:34.575Z,5.55
2022-08-23T12:47:42.752Z,5.50
2022-08-23T12:51:02.993Z,6.10
2022-08-23T12:54:14.126Z,6.57
2022-08-23T12:57:25.993Z,6.67
2022-08-23T13:00:54.737Z,18.30
2022-08-23T13:04:06.031Z,7.45
2022-08-23T13:07:15.185Z,6.35
2022-08-23T13:10:20.855Z,6.37
2022-08-23T13:13:26.489Z,6.28
2022-08-23T13:16:43.503Z,5.87
2022-08-23T13:19:49.080Z,7.50
2022-08-23T13:22:58.262Z,9.48
2022-08-23T13:26:29.969Z,6.75
2022-08-23T13:29:32.917Z,8.85
2022-08-23T13:32:39.973Z,6.28
2022-08-23T13:35:50.719Z,6.60
2022-08-23T13:38:53.771Z,6.20
2022-08-23T13:41:57.927Z,5.95
2022-08-23T13:45:08.952Z,9.93
2022-08-23T13:48:15.983Z,6.37
2022-08-23T13:51:36.926Z,6.95
2022-08-23T13:54:40.372Z,12.33
2022-08-23T13:57:43.409Z,12.68
2022-08-23T14:00:55.452Z,8.13
2022-08-23T14:03:58.821Z,6.57
2022-08-23T14:07:01.629Z,7.45
2022-08-23T14:10:05.066Z,8.48
2022-08-23T14:13:10.448Z,7.32
2022-08-23T14:16:33.818Z,12.73
2022-08-23T14:23:04.833Z,7.82
2022-08-23T14:26:17.980Z,8.63
2022-08-23T14:29:23.107Z,8.43
2022-08-23T14:32:26.019Z,10.02
2022-08-23T14:35:29.477Z,7.97
2022-08-23T14:38:32.152Z,8.18
2022-08-23T14:41:34.953Z,8.23
2022-08-23T14:44:37.641Z,8.00
2022-08-23T14:47:40.813Z,7.32
2022-08-23T14:50:46.960Z,7.12
2022-08-23T14:53:50.272Z,7.97
2022-08-23T14:56:53.617Z,7.53
2022-08-23T14:59:56.461Z,9.02
2022-08-23T15:02:59.227Z,10.85
2022-08-23T15:06:03.272Z,8.80
2022-08-23T15:09:05.908Z,7.78
2022-08-23T15:15:32.696Z,7.82
2022-08-23T15:18:37.742Z,8.57
2022-08-23T15:21:40.913Z,19.55
2022-08-23T15:24:43.681Z,9.70
2022-08-23T15:27:47.428Z,8.55
2022-08-23T15:30:51.672Z,7.37
2022-08-23T15:33:54.751Z,7.07
2022-08-23T15:36:57.680Z,9.18
2022-08-23T15:40:00.464Z,7.97
2022-08-23T15:43:03.616Z,7.03
2022-08-23T15:46:09.753Z,7.65
2022-08-23T15:49:15.900Z,7.15
2022-08-23T15:52:19.723Z,8.13
2022-08-23T15:55:23.779Z,7.50
2022-08-23T15:58:27.853Z,7.55
2022-08-23T16:01:33.854Z,6.85
2022-08-23T16:04:39.378Z,9.18
2022-08-23T16:07:43.396Z,8.15
2022-08-23T16:10:46.514Z,7.82
2022-08-23T16:13:51.630Z,6.90
2022-08-23T16:17:00.064Z,6.03
2022-08-23T16:20:04.076Z,7.10
2022-08-23T16:23:07.181Z,7.45
2022-08-23T16:26:16.424Z,7.28
2022-08-23T16:29:20.624Z,8.30
2022-08-23T16:32:23.167Z,8.05
2022-08-23T16:35:26.104Z,6.85
2022-08-23T16:41:31.296Z,6.50
2022-08-23T16:44:34.823Z,6.97
2022-08-23T16:47:44.740Z,7.82
2022-08-23T16:50:47.417Z,6.97
2022-08-23T16:54:01.571Z,8.15
2022-08-23T16:57:06.026Z,6.60
2022-08-23T17:00:14.270Z,8.40
2022-08-23T17:03:19.008Z,7.00
2022-08-23T17:06:22.735Z,7.60
2022-08-23T17:09:28.383Z,6.85
2022-08-23T17:12:32.120Z,6.35
2022-08-23T17:15:36.746Z,7.22
2022-08-23T17:18:39.978Z,7.00
2022-08-23T17:21:42.778Z,7.78
2022-08-23T17:24:45.881Z,7.10
2022-08-23T17:27:50.442Z,6.50
2022-08-23T17:30:54.178Z,6.50
2022-08-23T17:34:03.266Z,6.25
2022-08-23T17:37:21.880Z,8.32
2022-08-23T17:40:33.778Z,14.45
2022-08-23T17:43:37.152Z,7.32
2022-08-23T17:46:42.280Z,8.10
2022-08-23T17:49:47.973Z,7.70
2022-08-23T17:52:50.909Z,6.50
2022-08-23T17:55:53.827Z,5.62
2022-08-23T17:58:57.108Z,6.55
2022-08-23T18:02:00.578Z,6.15
2022-08-23T18:05:08.611Z,6.35
2022-08-23T18:08:11.286Z,6.22
2022-08-23T18:11:15.202Z,5.80
2022-08-23T18:14:17.864Z,5.45
2022-08-23T18:17:20.634Z,5.82
2022-08-23T18:23:26.273Z,6.87
2022-08-23T18:26:47.796Z,6.82
2022-08-23T18:29:51.376Z,6.95
2022-08-23T18:32:54.923Z,5.60
2022-08-23T18:35:57.654Z,6.07
2022-08-23T18:42:05.794Z,5.65
2022-08-23T18:45:09.406Z,5.87
2022-08-23T18:48:12.414Z,5.12
2022-08-23T18:51:18.048Z,6.03
2022-08-23T18:54:21.059Z,6.12
2022-08-23T19:00:26.233Z,5.07
2022-08-23T19:06:32.608Z,5.60
2022-08-23T19:09:35.314Z,5.70
2022-08-23T19:12:38.378Z,6.28
2022-08-23T19:15:52.452Z,7.68
2022-08-23T19:18:55.564Z,6.57
2022-08-23T19:21:58.455Z,5.30
2022-08-23T19:25:02.867Z,5.37
2022-08-23T19:28:06.256Z,5.32
2022-08-23T19:31:09.605Z,4.90
2022-08-23T19:34:12.544Z,6.07
2022-08-23T19:37:18.565Z,5.28
2022-08-23T19:40:25.252Z,5.22
2022-08-23T19:43:28.168Z,5.90
2022-08-23T19:46:35.882Z,5.37
2022-08-23T19:49:38.641Z,5.40
2022-08-23T19:55:45.367Z,5.03
2022-08-23T19:58:47.987Z,5.70
2022-08-23T20:04:55.752Z,5.43
2022-08-23T20:07:58.208Z,5.65
2022-08-23T20:11:01.519Z,5.32
2022-08-23T20:14:05.534Z,5.18
2022-08-23T20:17:08.760Z,7.80
2022-08-23T20:23:35.425Z,5.78
2022-08-23T20:26:50.086Z,5.85
2022-08-23T20:29:53.250Z,5.55
2022-08-23T20:32:55.975Z,6.60
2022-08-23T20:35:59.174Z,6.62
2022-08-23T20:39:01.976Z,5.87
2022-08-23T20:42:05.378Z,6.22
2022-08-23T20:45:10.687Z,5.80
2022-08-23T20:48:13.752Z,5.82
2022-08-23T20:51:16.320Z,5.45
2022-08-23T20:54:19.401Z,5.50
2022-08-23T20:57:21.967Z,5.75
2022-08-23T21:00:25.003Z,5.80
2022-08-23T21:03:29.874Z,5.30
2022-08-23T21:06:45.324Z,5.75
2022-08-23T21:09:49.292Z,42.38
2022-08-23T21:12:52.955Z,135.00
2022-08-23T21:15:55.646Z,33.67
2022-08-23T21:18:58.980Z,40.42
2022-08-23T21:22:01.459Z,8.10
2022-08-23T21:25:05.494Z,8.65
2022-08-23T21:28:08.521Z,6.50
2022-08-23T21:31:17.052Z,5.25
2022-08-23T21:34:19.675Z,6.62
2022-08-23T21:37:24.776Z,6.43
2022-08-23T21:40:27.292Z,6.20
2022-08-23T21:43:31.129Z,5.87
2022-08-23T21:46:34.003Z,6.07
2022-08-23T21:49:37.628Z,6.55
2022-08-23T21:52:40.426Z,5.70
2022-08-23T21:55:45.515Z,5.87
2022-08-23T21:58:50.674Z,6.00
2022-08-23T22:01:53.885Z,6.28
